Požarna ogroženost Od: 10-04-2020 00:00 Do: 13-04-2020 23:59 Opozorilo za: Požarna ogroženost Stopnja: Rumena info button

METAR v bližini

 

LIPQ - Ronchi Legionari, Italy
Oddaljenost od postaje: JZ 35km
Podatki zajeti: 06/04/2020 05:50
Ni posodobljen
Jasno
Jasno
 Veter iz smeri S
Veter: S 6 km/h
Temperatura: 9°C
Temp. rosišča: 1°C
Vlažnost: 58%
Tlak: 1025 hPa
Oblačnost: Jasno
Vidljivost: 10 km
2020/04/06 03:50 LIPQ 060350Z AUTO 35003KT 9999 NCD 09/01 Q1025
LIVT - Trieste, Italy
Oddaljenost od postaje: J 49km
Podatki zajeti: 10/04/2020 06:55
Ni posodobljen
Jasno
Jasno
 Veter iz smeri spremenljiv
Veter: spremenljiv 0 km/h
Temperatura: 10°C
Temp. rosišča: 3°C
Vlažnost: 62%
Tlak: 1021 hPa
Stanje: Jasno
Vidljivost: večja od 10 km
2020/04/10 04:55 LIVT 100455Z /////KT CAVOK 10/03 Q1021 RMK SKC QUK 0 QUL 0 VIS MAR 20 KM VIS MIN 9999
 
LIVO - Tarvisio, Italy
Oddaljenost od postaje: SSZ 49km
Podatki zajeti: 09/04/2020 19:55
Ni posodobljen
Jasno
Jasno
 Veter iz smeri calm
Veter: Tišina
Temperatura: 13°C
Temp. rosišča: 3°C
Vlažnost: 51%
Tlak: 1019 hPa
Stanje: Jasno
Vidljivost: večja od 10 km
2020/04/09 17:55 LIVO 091755Z 00000KT CAVOK 13/03 Q1019 RMK FEW FEW100 VIS MIN 9999
LIPI - Rivolto (it-Afb), Italy
Oddaljenost od postaje: ZJZ 57km
Podatki zajeti: 10/04/2020 06:55
Ni posodobljen
Jasno
Jasno
 Veter iz smeri SZ
Veter: SZ 7 km/h
Temperatura: 9°C
Občutek mraza zaradi vetra: 8°C
Temp. rosišča: 3°C
Vlažnost: 66%
Tlak: 1021 hPa
Stanje: Jasno
Vidljivost: večja od 10 km
2020/04/10 04:55 LIPI 100455Z 32004KT CAVOK 09/03 Q1021 RMK SKC VIS MIN 9999 WIND THR06 33002KT WIND THR24 34002KT BLU
 
LJLJ - Ljubljana/Brnik, Slovenia
Oddaljenost od postaje: VSV 59km
Podatki zajeti: 10/04/2020 08:30
Jasno
Jasno
 Veter iz smeri spremenljiv
Veter: spremenljiv 2 km/h
Temperatura: 7°C
Temp. rosišča: 1°C
Vlažnost: 66%
Tlak: 1024 hPa
Stanje: Jasno
Vidljivost: večja od 10 km
2020/04/10 06:30 LJLJ 100630Z VRB01KT CAVOK 07/01 Q1024 NOSIG
LJPZ - Portoroz, Slovenia
Oddaljenost od postaje: J 68km
Podatki zajeti: 10/04/2020 08:30
Jasno
Jasno
 Veter iz smeri spremenljiv
Veter: spremenljiv 4 km/h
Temperatura: 12°C
Temp. rosišča: 1°C
Vlažnost: 47%
Tlak: 1022 hPa
Stanje: Jasno
Vidljivost: večja od 10 km
2020/04/10 06:30 LJPZ 100630Z VRB02KT CAVOK 12/01 Q1022
 
LOWK - Klagenfurt(Civ/M, Austria
Oddaljenost od postaje: SV 78km
Podatki zajeti: 10/04/2020 08:20
Jasno
Jasno
 Veter iz smeri ZSZ
Veter: ZSZ 6 km/h
Temperatura: 8°C
Temp. rosišča: 2°C
Vlažnost: 66%
Tlak: 1026 hPa
Stanje: Jasno
Vidljivost: večja od 10 km
2020/04/10 06:20 LOWK 100620Z 30003KT CAVOK 08/02 Q1026 NOSIG
LIYW - Aviano (usaf), Italy
Oddaljenost od postaje: Z 86km
Podatki zajeti: 20/10/2015 15:58
Ni posodobljen
Jasno
Jasno
 Veter iz smeri JJZ
Veter: JJZ 6 km/h
Temperatura: 17°C
Temp. rosišča: 3°C
Vlažnost: 39%
Tlak: 1016.3 hPa
Oblačnost: Jasno
Vidljivost: 10 km
2015/10/20 13:58 LIYW 201358Z AUTO 21003KT 9999 CLR 17/03 A3001 RMK AO2 SLP167 T01660029
 
LIPA - Aviano (it/Us-Af, Italy
Oddaljenost od postaje: Z 89km
Podatki zajeti: 09/04/2020 19:55
Ni posodobljen
Jasno
Jasno
 Veter iz smeri J
Veter: J 7 km/h
Temperatura: 21°C
Temp. rosišča: 6°C
Vlažnost: 38%
Tlak: 1019 hPa
Stanje: Jasno
Vidljivost: večja od 10 km
2020/04/09 17:55 LIPA 091755Z 18004KT CAVOK 21/06 Q1019 RMK SKC VIS MIN 9999 WIND THR05 /////KT WIND THR23 /////KT A3012 BLU
LDRI - Rijeka/Omisalj, Croatia
Oddaljenost od postaje: JV 115km
Podatki zajeti: 10/04/2020 08:30
Jasno
Jasno
 Veter iz smeri SSV
Veter: SSV 6 km/h
Temperatura: 18°C
Temp. rosišča: 2°C
Vlažnost: 34%
Tlak: 1022 hPa
Stanje: Jasno
Vidljivost: večja od 10 km
2020/04/10 06:30 LDRI 100630Z 02003KT 330V070 CAVOK 18/02 Q1022
 
LIPZ - Venezia/Tessera, Italy
Oddaljenost od postaje: ZJZ 127km
Podatki zajeti: 10/04/2020 08:20
Jasno
Jasno
 Veter iz smeri S
Veter: S 6 km/h
Temperatura: 12°C
Temp. rosišča: 3°C
Vlažnost: 54%
Tlak: 1022 hPa
Stanje: Jasno
Vidljivost: večja od 10 km
2020/04/10 06:20 LIPZ 100620Z 36003KT CAVOK 12/03 Q1022 NOSIG
LDPL - Pula, Croatia
Oddaljenost od postaje: J 133km
Podatki zajeti: 10/04/2020 08:30
Jasno
Jasno
 Veter iz smeri SV
Veter: SV 2 km/h
Temperatura: 16°C
Temp. rosišča: 5°C
Vlažnost: 48%
Tlak: 1022 hPa
Stanje: Jasno
Vidljivost: večja od 10 km
2020/04/10 06:30 LDPL 100630Z 05001KT CAVOK 16/05 Q1022 NOSIG
 
LIPS - Istrana (it-Afb), Italy
Oddaljenost od postaje: ZJZ 136km
Podatki zajeti: 10/04/2020 06:55
Ni posodobljen
Jasno
Jasno
 Veter iz smeri spremenljiv
Veter: spremenljiv 0 km/h
Temperatura: 8°C
Temp. rosišča: 6°C
Vlažnost: 87%
Tlak: 1022 hPa
Stanje: Jasno
Vidljivost: večja od 10 km
2020/04/10 04:55 LIPS 100455Z /////KT CAVOK 08/06 Q1022 RMK SKC VIS MIN 9999 WIND THR26 28001KT WIND THR08 31002KT BLU
LIVD - Dobbiaco, Italy
Oddaljenost od postaje: ZSZ 137km
Podatki zajeti: 10/04/2020 07:55
Jasno
Jasno
 Veter iz smeri calm
Veter: Tišina
Temperatura: 2°C
Temp. rosišča: 1°C
Vlažnost: 93%
Tlak: 1027 hPa
Stanje: Jasno
Vidljivost: večja od 10 km
2020/04/10 05:55 LIVD 100555Z 00000KT CAVOK 02/01 Q1027 RMK SKC VIS MIN 9999
 
LJCE - Cerklje, Slovenia
Oddaljenost od postaje: V 139km
Podatki zajeti: 10/04/2020 08:30
Jasno
Jasno
 Veter iz smeri spremenljiv
Veter: spremenljiv 2 km/h
Temperatura: 8°C
Temp. rosišča: 2°C
Vlažnost: 66%
Tlak: 1024 hPa
Stanje: Jasno
Vidljivost: večja od 10 km
2020/04/10 06:30 LJCE 100630Z VRB01KT CAVOK 08/02 Q1024 RMK BLU
LOXZ - Zeltweg (mil), Austria
Oddaljenost od postaje: SSV 147km
Podatki zajeti: 10/04/2020 08:20
Jasno
Jasno
 Veter iz smeri calm
Veter: Tišina
Temperatura: 5°C
Temp. rosišča: 1°C
Vlažnost: 76%
Tlak: 1026 hPa
Oblačnost: Jasno
2020/04/10 06:20 LOXZ 100620Z 00000KT 30KM SKC 05/01 Q1026 NOSIG
sucontract_SNC